sim
Sign-in with your pilot id or email,
or register
Callsign
Passwort

Schedule Details

Flight Number: OEO5736
Departure: Hannover Langenhagen Airport (EDDV) at 15:10
Arrival: Munich Airport (EDDM) at 16:25

Weather Information
Getting current METAR information for EDDV 250720Z 23007KT 180V290 CAVOK 13/08 Q0997 NOSIG
Getting current METAR information for EDDM 250720Z 28017G27KT 4500 SHRA FEW008 SCT020CB BKN040 11/09 Q1001 BECMG 25010KT 7000 NSW

Schedule Frequency

Route Map